Time;durP1;ratioP1;P1;durP2;ratioP2;P2;SDS_P1;SDS_P2;PMS_P1;PMS_P2;Temp;Humidity;BMP_temperature;BMP_pressure;BME280_temperature;BME280_humidity;BME280_pressure;Samples;Min_cycle;Max_cycle;Signal;HPM_P1;HPM_P2
2022/08/19 00:01:29;;;;;;;7.57;6.97;;;;;;;18.26;100.00;100884.53;6012282;23;20035;-75
2022/08/19 00:04:00;;;;;;;8.20;7.32;;;;;;;18.06;100.00;100859.59;6002399;23;20019;-75
2022/08/19 00:06:28;;;;;;;7.80;7.20;;;;;;;18.22;100.00;100887.53;6000876;23;20039;-74
2022/08/19 00:09:02;;;;;;;9.13;7.47;;;;;;;18.17;100.00;100892.41;6005879;23;20094;-74
2022/08/19 00:11:29;;;;;;;8.20;7.45;;;;;;;18.10;100.00;100892.91;6005176;23;20043;-74
2022/08/19 00:13:56;;;;;;;7.38;6.82;;;;;;;18.07;100.00;100889.66;5994724;23;20018;-74
2022/08/19 00:16:27;;;;;;;8.13;7.43;;;;;;;17.74;100.00;100847.06;6002930;23;20087;-74
2022/08/19 00:18:55;;;;;;;7.82;7.28;;;;;;;17.88;100.00;100874.34;6008136;23;20027;-74
2022/08/19 00:21:26;;;;;;;8.82;7.95;;;;;;;18.05;100.00;100888.94;5960802;23;20035;-74
2022/08/19 00:23:54;;;;;;;8.05;7.43;;;;;;;18.02;100.00;100898.00;5998262;23;20066;-74
2022/08/19 00:26:21;;;;;;;8.20;7.60;;;;;;;18.01;100.00;100890.16;5980565;23;20460;-74
2022/08/19 00:28:47;;;;;;;8.02;7.32;;;;;;;16.62;100.00;100657.00;6002344;23;20410;-74
2022/08/19 00:31:15;;;;;;;8.07;7.47;;;;;;;17.84;100.00;100873.75;6012887;23;20115;-74
2022/08/19 00:33:43;;;;;;;8.27;7.65;;;;;;;17.94;100.00;100880.03;6003424;23;20050;-73
2022/08/19 00:36:10;;;;;;;9.18;8.32;;;;;;;17.94;100.00;100880.03;6004384;23;20476;-73
2022/08/19 00:38:42;;;;;;;7.55;6.95;;;;;;;17.93;100.00;100891.59;6008251;23;20098;-73
2022/08/19 00:41:16;;;;;;;8.80;8.20;;;;;;;17.93;100.00;100882.78;5992289;23;20067;-72
2022/08/19 00:43:42;;;;;;;9.77;8.38;;;;;;;17.90;100.00;100883.88;6001243;23;20023;-74
2022/08/19 00:46:09;;;;;;;10.60;9.23;;;;;;;17.11;100.00;100764.50;6000251;23;20022;-74
2022/08/19 00:48:36;;;;;;;9.35;8.50;;;;;;;17.47;100.00;100839.47;6005418;23;20034;-74
2022/08/19 00:51:08;;;;;;;9.90;8.88;;;;;;;17.27;100.00;100813.69;6007320;23;20560;-75
2022/08/19 00:53:34;;;;;;;9.50;8.60;;;;;;;17.64;100.00;100871.78;6000778;23;20019;-74
2022/08/19 00:56:02;;;;;;;10.07;9.07;;;;;;;17.64;100.00;100862.03;6005422;23;20697;-74
2022/08/19 00:58:34;;;;;;;8.38;7.53;;;;;;;17.66;100.00;100859.25;6011476;23;20015;-74
2022/08/19 01:01:02;;;;;;;8.80;8.10;;;;;;;17.28;100.00;100802.97;5985592;23;20502;-73
2022/08/19 01:03:28;;;;;;;9.15;7.57;;;;;;;17.18;100.00;100783.44;6017161;23;20082;-74
2022/08/19 01:06:15;;;;;;;10.60;9.60;;;;;;;17.71;100.00;100902.22;5999991;23;20394;-74
2022/08/19 01:08:49;;;;;;;8.98;8.18;;;;;;;17.70;100.00;100871.31;5980084;23;20011;-73
2022/08/19 01:11:16;;;;;;;9.52;8.73;;;;;;;17.21;100.00;100792.94;6003409;23;20026;-74
2022/08/19 01:13:44;;;;;;;8.88;8.07;;;;;;;17.19;100.00;100798.38;6001264;23;20355;-74
2022/08/19 01:16:20;;;;;;;8.95;8.20;;;;;;;17.64;100.00;100866.47;5996266;23;20024;-74
2022/08/19 01:18:47;;;;;;;7.75;7.15;;;;;;;17.60;100.00;100870.34;5996790;23;20090;-74
2022/08/19 01:21:23;;;;;;;10.25;9.35;;;;;;;17.04;100.00;100784.50;5999708;23;20019;-73
2022/08/19 01:23:50;;;;;;;8.13;7.38;;;;;;;17.09;100.00;100802.72;5991799;23;20007;-73
2022/08/19 01:26:22;;;;;;;10.23;9.45;;;;;;;16.93;100.00;100787.16;5961317;23;20026;-73
2022/08/19 01:28:52;;;;;;;8.68;7.95;;;;;;;17.44;100.00;100860.97;5988445;23;20015;-73
2022/08/19 01:31:30;;;;;;;8.32;7.63;;;;;;;17.44;100.00;100862.75;5993774;23;20071;-73
2022/08/19 01:34:00;;;;;;;9.38;8.57;;;;;;;17.42;100.00;100860.25;5990432;23;20027;-76
2022/08/19 01:36:36;;;;;;;8.25;7.60;;;;;;;17.38;100.00;100858.78;5977872;23;20016;-73
2022/08/19 01:39:08;;;;;;;9.25;8.48;;;;;;;17.00;100.00;100798.09;5995730;23;20046;-74
2022/08/19 01:41:35;;;;;;;7.72;7.13;;;;;;;17.01;100.00;100803.31;5990831;23;20441;-73
2022/08/19 01:44:05;;;;;;;9.07;8.32;;;;;;;16.90;100.00;100795.34;5996843;23;20095;-73
2022/08/19 01:46:46;;;;;;;9.20;8.40;;;;;;;17.24;100.00;100856.34;5990351;23;20220;-74
2022/08/19 01:49:14;;;;;;;10.02;9.23;;;;;;;17.02;100.00;100836.81;5993414;23;20107;-73
2022/08/19 01:51:41;;;;;;;8.55;7.85;;;;;;;17.09;100.00;100851.28;6007027;23;20043;-74
2022/08/19 01:54:09;;;;;;;9.43;8.73;;;;;;;17.09;100.00;100869.00;5987579;23;20082;-74
2022/08/19 01:56:36;;;;;;;8.85;8.10;;;;;;;16.77;100.00;100811.31;5990741;23;20026;-73
2022/08/19 01:59:07;;;;;;;9.00;8.30;;;;;;;17.00;100.00;100844.06;5991449;23;20057;-73
2022/08/19 02:01:34;;;;;;;8.55;7.90;;;;;;;16.78;100.00;100813.00;5981409;23;20061;-73
2022/08/19 02:04:01;;;;;;;9.80;8.93;;;;;;;16.90;100.00;100843.91;5993205;23;20019;-74
2022/08/19 02:06:30;;;;;;;9.25;8.48;;;;;;;16.82;100.00;100838.34;5999249;23;20094;-73
2022/08/19 02:08:57;;;;;;;8.88;8.05;;;;;;;16.46;100.00;100788.97;5991352;23;20456;-74
2022/08/19 02:11:31;;;;;;;8.95;8.20;;;;;;;16.63;100.00;100822.13;5997972;23;20074;-74
2022/08/19 02:14:03;;;;;;;12.50;8.80;;;;;;;16.65;100.00;100846.69;6000064;23;20460;-76
2022/08/19 02:16:30;;;;;;;8.18;7.50;;;;;;;16.04;100.00;100754.16;5987620;23;20034;-73
2022/08/19 02:19:04;;;;;;;10.50;9.25;;;;;;;15.98;100.00;100763.38;6010195;23;20823;-74
2022/08/19 02:21:32;;;;;;;9.70;8.80;;;;;;;16.23;100.00;100820.63;6000816;23;20070;-73
2022/08/19 02:23:58;;;;;;;8.95;8.13;;;;;;;16.50;100.00;100848.69;6011549;23;20019;-75
2022/08/19 02:26:26;;;;;;;9.38;8.48;;;;;;;16.50;100.00;100852.19;6026956;23;20023;-75
2022/08/19 02:28:54;;;;;;;10.02;9.05;;;;;;;15.87;100.00;100744.78;6015441;23;20027;-72
2022/08/19 02:31:24;;;;;;;9.73;8.60;;;;;;;16.55;100.00;100849.19;6014566;23;20381;-74
2022/08/19 02:33:52;;;;;;;9.45;8.45;;;;;;;16.50;100.00;100844.25;6019217;23;20037;-74
2022/08/19 02:36:23;;;;;;;10.05;9.13;;;;;;;16.16;100.00;100774.41;5984069;23;20592;-74
2022/08/19 02:38:50;;;;;;;8.65;7.88;;;;;;;16.58;100.00;100854.28;5996462;23;20023;-74
2022/08/19 02:41:26;;;;;;;8.88;8.07;;;;;;;16.11;100.00;100790.63;6011566;23;20044;-74
2022/08/19 02:43:57;;;;;;;9.02;7.97;;;;;;;16.57;100.00;100863.16;6003687;23;20034;-74
2022/08/19 02:46:47;;;;;;;8.65;7.93;;;;;;;16.55;100.00;100870.38;6001589;23;20027;-73
2022/08/19 02:49:16;;;;;;;10.07;9.23;;;;;;;16.53;100.00;100870.50;6006629;23;20034;-73
2022/08/19 02:51:45;;;;;;;10.50;9.48;;;;;;;16.34;100.00;100849.84;6002211;23;20054;-73
2022/08/19 02:54:14;;;;;;;10.00;9.20;;;;;;;16.48;100.00;100879.75;5986395;23;20073;-74
2022/08/19 02:56:43;;;;;;;10.18;9.18;;;;;;;15.93;100.00;100811.34;6006000;23;20437;-74
2022/08/19 02:59:10;;;;;;;10.95;9.95;;;;;;;16.08;100.00;100827.09;6000410;23;20061;-73
2022/08/19 03:01:40;;;;;;;11.68;9.02;;;;;;;15.87;100.00;100787.97;5988861;23;20161;-73
2022/08/19 03:04:08;;;;;;;11.40;10.40;;;;;;;16.29;100.00;100867.84;6006344;23;20020;-73
2022/08/19 03:06:40;;;;;;;10.07;9.07;;;;;;;15.93;100.00;100824.56;5990634;23;20189;-74
2022/08/19 03:09:07;;;;;;;9.68;8.80;;;;;;;15.77;100.00;100775.53;5969413;23;20631;-71
2022/08/19 03:11:34;;;;;;;8.88;8.05;;;;;;;15.98;100.00;100829.56;5963194;23;20194;-73
2022/08/19 03:14:03;;;;;;;9.07;8.40;;;;;;;16.39;100.00;100875.13;5975193;23;20020;-74
2022/08/19 03:16:33;;;;;;;9.93;8.98;;;;;;;15.14;100.00;100670.66;5951956;24;20476;-74
2022/08/19 03:19:02;;;;;;;9.70;8.80;;;;;;;15.77;100.00;100786.94;5966355;23;20039;-74
2022/08/19 03:21:32;;;;;;;8.60;7.82;;;;;;;16.33;100.00;100868.47;5972131;23;20007;-73
2022/08/19 03:24:07;;;;;;;9.02;8.23;;;;;;;15.69;100.00;100763.66;5986969;23;20067;-74
2022/08/19 03:26:38;;;;;;;10.68;9.52;;;;;;;16.25;100.00;100863.75;5954690;23;20024;-73
2022/08/19 03:29:05;;;;;;;10.77;9.32;;;;;;;15.92;100.00;100807.03;5983473;23;20461;-73
2022/08/19 03:31:34;;;;;;;9.52;8.65;;;;;;;15.02;100.00;100657.47;5959220;24;20016;-73
2022/08/19 03:34:33;;;;;;;11.45;10.35;;;;;;;16.26;100.00;100865.44;5967347;23;20031;-74
2022/08/19 03:37:12;;;;;;;11.63;10.48;;;;;;;16.28;100.00;100902.41;5979984;23;20052;-73
2022/08/19 03:39:42;;;;;;;9.90;9.00;;;;;;;16.30;100.00;100872.22;5956890;23;20021;-73
2022/08/19 03:42:09;;;;;;;12.40;10.63;;;;;;;15.88;100.00;100800.25;5982617;23;20028;-73
2022/08/19 03:45:02;;;;;;;10.45;9.45;;;;;;;15.41;100.00;100733.06;5981895;23;20028;-75
2022/08/19 03:47:30;;;;;;;13.82;9.90;;;;;;;15.95;100.00;100803.28;5972392;23;20229;-75
2022/08/19 03:49:59;;;;;;;14.93;10.60;;;;;;;15.91;100.00;100809.78;5972022;23;20012;-75
2022/08/19 03:52:26;;;;;;;12.55;11.25;;;;;;;16.06;100.00;100818.41;5979738;23;20078;-74
2022/08/19 03:54:53;;;;;;;13.93;10.57;;;;;;;15.97;100.00;100797.91;5974148;23;20094;-75
2022/08/19 03:57:19;;;;;;;12.27;10.30;;;;;;;16.25;100.00;100852.31;5981906;23;20021;-75
2022/08/19 03:59:49;;;;;;;11.80;10.63;;;;;;;15.95;100.00;100809.44;5971888;23;20028;-74
2022/08/19 04:02:16;;;;;;;12.23;11.05;;;;;;;16.23;100.00;100841.81;5989291;23;20215;-74
2022/08/19 04:04:43;;;;;;;33.28;11.05;;;;;;;16.34;100.00;100865.72;5974942;23;20027;-73
2022/08/19 04:07:15;;;;;;;15.13;11.88;;;;;;;15.39;100.00;100732.34;5981909;23;20078;-72
2022/08/19 04:09:42;;;;;;;19.13;10.73;;;;;;;15.99;100.00;100825.94;5979013;23;20046;-74
2022/08/19 04:12:08;;;;;;;15.23;12.63;;;;;;;15.73;100.00;100798.72;5967052;23;20237;-73
2022/08/19 04:14:36;;;;;;;12.45;10.77;;;;;;;15.32;100.00;100724.00;5976541;23;20022;-74
2022/08/19 04:17:06;;;;;;;13.05;11.70;;;;;;;16.20;100.00;100873.00;5966489;23;20032;-74
2022/08/19 04:19:35;;;;;;;12.27;8.90;;;;;;;16.16;100.00;100872.38;5946611;24;20538;-74
2022/08/19 04:22:04;;;;;;;13.85;10.95;;;;;;;15.98;100.00;100849.91;5967837;23;20019;-74
2022/08/19 04:24:32;;;;;;;12.60;10.52;;;;;;;16.11;100.00;100877.16;5959601;23;20052;-74
2022/08/19 04:27:00;;;;;;;11.13;9.65;;;;;;;15.63;100.00;100810.88;5975188;23;20601;-75
2022/08/19 04:29:27;;;;;;;10.77;9.27;;;;;;;15.59;100.00;100815.53;5963350;23;20348;-74
2022/08/19 04:31:55;;;;;;;13.43;10.02;;;;;;;16.06;100.00;100881.94;5982875;23;20043;-74
2022/08/19 04:34:25;;;;;;;10.38;9.38;;;;;;;16.08;100.00;100872.94;5962544;23;20086;-74
2022/08/19 04:36:53;;;;;;;10.02;8.95;;;;;;;15.97;100.00;100840.25;5977690;23;20022;-74
2022/08/19 04:42:38;;;;;;;11.35;10.15;;;;;;;16.13;100.00;100873.44;5968594;23;20079;-74
2022/08/19 04:44:59;;;;;;;11.13;9.93;;;;;;;15.59;100.00;100773.22;5972634;23;20035;-74
2022/08/19 04:47:26;;;;;;;11.45;9.65;;;;;;;15.69;100.00;100791.94;5971177;23;20036;-74
2022/08/19 04:50:14;;;;;;;12.25;10.30;;;;;;;16.22;100.00;100879.03;5967646;23;20030;-74
2022/08/19 04:52:42;;;;;;;14.35;10.68;;;;;;;16.08;100.00;100845.63;5957775;24;20016;-74
2022/08/19 04:55:10;;;;;;;13.00;11.68;;;;;;;16.09;100.00;100840.19;5963972;23;20028;-75
2022/08/19 04:57:39;;;;;;;17.35;11.15;;;;;;;16.46;100.00;100889.63;5967089;23;20056;-74
2022/08/19 05:00:08;;;;;;;16.40;12.50;;;;;;;16.51;100.00;100887.47;5981131;23;20036;-74
2022/08/19 05:02:34;;;;;;;11.57;9.80;;;;;;;15.73;100.00;100765.16;5948619;24;20015;-73
2022/08/19 05:05:01;;;;;;;14.45;13.00;;;;;;;15.89;100.00;100762.22;5979030;23;20160;-74
2022/08/19 05:07:29;;;;;;;12.82;10.80;;;;;;;16.49;100.00;100834.59;5996893;23;20055;-74
2022/08/19 05:09:55;;;;;;;15.70;12.05;;;;;;;16.61;100.00;100822.22;5995596;23;20026;-73
2022/08/19 05:12:25;;;;;;;16.75;12.52;;;;;;;16.72;100.00;100829.38;5981783;23;20011;-73
2022/08/19 05:14:56;;;;;;;13.95;11.48;;;;;;;16.97;100.00;100856.69;5967368;23;20518;-74
2022/08/19 05:17:23;;;;;;;14.73;12.15;;;;;;;17.18;100.00;100886.00;5931261;24;20232;-74
2022/08/19 05:22:40;;;;;;;14.70;13.20;;;;;;;17.48;100.00;100909.31;5969734;23;20017;-74
2022/08/19 05:25:12;;;;;;;16.23;13.68;;;;;;;17.14;100.00;100833.22;5975749;23;20405;-74
2022/08/19 05:27:41;;;;;;;14.43;10.27;;;;;;;17.81;100.00;100911.13;5981511;23;20354;-74
2022/08/19 05:30:08;;;;;;;14.65;12.98;;;;;;;17.83;100.00;100880.03;5966197;23;20090;-72
2022/08/19 05:32:35;;;;;;;11.38;9.75;;;;;;;18.19;100.00;100911.72;5979696;23;20271;-74
2022/08/19 05:35:03;;;;;;;18.85;15.23;;;;;;;17.70;100.00;100824.41;5966567;23;20042;-74
2022/08/19 05:37:30;;;;;;;20.48;13.90;;;;;;;18.30;100.00;100891.28;5989226;23;20015;-74
2022/08/19 05:39:56;;;;;;;15.68;12.95;;;;;;;18.46;100.00;100896.19;5967204;23;20018;-74
2022/08/19 05:42:23;;;;;;;20.08;14.50;;;;;;;17.56;100.00;100715.84;5946174;23;20341;-75
2022/08/19 05:44:52;;;;;;;14.23;11.75;;;;;;;18.42;100.00;100830.13;5970215;23;20030;-75
2022/08/19 05:47:19;;;;;;;15.10;11.70;;;;;;;19.00;100.00;100909.50;5965125;23;20035;-73
2022/08/19 05:49:47;;;;;;;16.90;12.93;;;;;;;19.13;100.00;100900.34;5963590;23;20304;-73
2022/08/19 05:52:15;;;;;;;15.63;11.52;;;;;;;19.36;100.00;100900.19;5950991;23;20032;-73
2022/08/19 05:54:47;;;;;;;21.42;14.52;;;;;;;19.45;100.00;100862.13;5967073;23;20086;-74
2022/08/19 05:57:18;;;;;;;28.48;16.55;;;;;;;19.89;100.00;100884.03;5975266;23;20294;-74
2022/08/19 05:59:48;;;;;;;17.85;12.15;;;;;;;20.13;100.00;100880.19;5965481;23;20094;-73
2022/08/19 06:02:14;;;;;;;16.02;13.90;;;;;;;20.23;100.00;100878.38;5968960;23;20069;-74
2022/08/19 06:04:44;;;;;;;16.83;12.48;;;;;;;20.20;100.00;100872.47;5969812;23;20051;-74
2022/08/19 06:07:10;;;;;;;17.17;15.23;;;;;;;19.79;100.00;100835.25;5960147;23;20048;-73
2022/08/19 06:09:38;;;;;;;13.55;11.48;;;;;;;20.02;100.00;100882.94;5970936;23;20047;-74
2022/08/19 06:12:06;;;;;;;16.08;12.57;;;;;;;19.93;100.00;100880.13;5965117;23;20454;-74
2022/08/19 06:14:34;;;;;;;17.30;12.55;;;;;;;19.78;100.00;100889.47;5969292;23;20359;-73
2022/08/19 06:17:07;;;;;;;16.23;14.02;;;;;;;19.48;100.00;100861.88;5962954;23;20031;-73
2022/08/19 06:19:34;;;;;;;20.15;13.48;;;;;;;19.22;100.00;100834.84;5969904;23;20185;-75
2022/08/19 06:22:07;;;;;;;16.33;14.40;;;;;;;18.97;100.00;100832.63;5966750;23;20030;-75
2022/08/19 06:24:34;;;;;;;13.30;11.27;;;;;;;19.03;100.00;100843.59;5965610;23;20481;-74
2022/08/19 06:27:05;;;;;;;15.80;12.50;;;;;;;19.28;100.00;100871.59;5984205;23;20106;-74
2022/08/19 06:29:32;;;;;;;14.25;12.52;;;;;;;19.29;100.00;100881.25;5984110;23;20019;-73
2022/08/19 06:32:01;;;;;;;17.33;12.70;;;;;;;19.46;100.00;100909.06;5980568;23;20023;-74
2022/08/19 06:34:31;;;;;;;18.10;15.25;;;;;;;19.50;100.00;100888.34;5942578;24;20071;-73
2022/08/19 06:37:00;;;;;;;15.43;12.40;;;;;;;19.49;100.00;100892.00;5980942;23;20041;-73
2022/08/19 06:39:32;;;;;;;11.25;10.25;;;;;;;19.52;100.00;100887.25;5974540;23;20046;-73
2022/08/19 06:42:01;;;;;;;22.00;19.60;;;;;;;19.11;100.00;100854.41;5935917;23;20050;-75
2022/08/19 06:44:34;;;;;;;17.13;11.52;;;;;;;19.34;100.00;100864.88;5911752;23;20098;-74
2022/08/19 06:47:08;;;;;;;14.38;12.90;;;;;;;19.29;100.00;100846.66;5959771;23;20019;-75
2022/08/19 06:49:49;;;;;;;13.68;10.82;;;;;;;19.35;100.00;100855.94;5965722;23;20023;-75
2022/08/19 06:52:15;;;;;;;12.40;11.30;;;;;;;18.71;100.00;100735.47;5967678;23;20043;-74
2022/08/19 06:54:42;;;;;;;15.02;12.35;;;;;;;19.69;100.00;100891.09;5965324;23;20646;-73
2022/08/19 06:57:22;;;;;;;11.73;10.10;;;;;;;19.84;100.00;100890.75;5967609;23;20100;-72
2022/08/19 06:59:49;;;;;;;15.88;11.98;;;;;;;19.87;100.00;100888.66;5977132;23;20031;-73
2022/08/19 07:02:15;;;;;;;18.58;12.93;;;;;;;19.63;100.00;100848.19;5966884;23;20066;-74
2022/08/19 07:04:42;;;;;;;14.75;11.93;;;;;;;19.46;100.00;100839.03;5975979;23;20494;-74
2022/08/19 07:07:12;;;;;;;21.73;13.73;;;;;;;19.23;100.00;100827.72;5988255;23;20110;-73
2022/08/19 07:09:47;;;;;;;22.65;13.45;;;;;;;19.39;100.00;100872.47;5980528;23;20063;-73
2022/08/19 07:12:28;;;;;;;16.25;11.77;;;;;;;19.47;100.00;100897.44;5992073;23;20090;-74
2022/08/19 07:14:57;;;;;;;21.60;14.85;;;;;;;18.29;100.00;100729.34;5995597;23;20085;-74
2022/08/19 07:17:24;;;;;;;17.20;13.55;;;;;;;19.35;100.00;100914.47;5993488;23;20504;-74
2022/08/19 07:19:51;;;;;;;24.40;13.35;;;;;;;18.90;100.00;100829.63;5997712;23;20701;-74
2022/08/19 07:22:22;;;;;;;18.88;14.38;;;;;;;19.61;100.00;100919.38;5996816;23;20384;-74
2022/08/19 07:24:49;;;;;;;22.50;15.05;;;;;;;19.56;100.00;100886.97;5989739;23;20330;-74
2022/08/19 07:27:18;;;;;;;16.75;13.55;;;;;;;19.96;100.00;100932.28;5992995;23;20027;-74
2022/08/19 07:29:52;;;;;;;19.95;13.90;;;;;;;19.95;100.00;100913.78;6002230;23;20019;-75
2022/08/19 07:32:26;;;;;;;21.20;13.68;;;;;;;19.96;100.00;100923.47;5984256;23;20110;-74
2022/08/19 07:34:52;;;;;;;24.02;14.85;;;;;;;19.79;100.00;100877.00;5991257;23;20025;-75
2022/08/19 07:37:19;;;;;;;32.17;13.98;;;;;;;19.96;100.00;100900.31;5994529;23;20037;-74
2022/08/19 07:39:45;;;;;;;25.98;14.93;;;;;;;20.22;100.00;100923.81;5996861;23;20031;-75
2022/08/19 07:42:13;;;;;;;28.45;14.68;;;;;;;20.22;100.00;100903.31;5989807;23;20064;-75
2022/08/19 07:44:40;;;;;;;23.95;15.13;;;;;;;20.46;100.00;100916.25;5979744;23;20023;-75
2022/08/19 07:47:07;;;;;;;19.67;15.18;;;;;;;20.46;100.00;100878.94;5989126;23;20019;-75
2022/08/19 07:49:54;;;;;;;25.30;16.15;;;;;;;20.74;100.00;100928.94;5976245;23;20473;-75
2022/08/19 07:52:20;;;;;;;28.42;14.68;;;;;;;20.52;100.00;100888.19;5992719;23;20090;-75
2022/08/19 07:54:46;;;;;;;23.10;15.52;;;;;;;20.87;100.00;100941.00;5990920;23;20027;-73
2022/08/19 07:57:13;;;;;;;31.65;17.08;;;;;;;20.84;100.00;100940.44;5990790;23;20148;-74
2022/08/19 07:59:40;;;;;;;24.27;14.07;;;;;;;20.83;100.00;100896.94;5978663;23;20057;-74
2022/08/19 08:02:08;;;;;;;23.20;15.98;;;;;;;21.12;100.00;100914.72;5996877;23;20171;-74
2022/08/19 08:10:11;;;;;;;23.15;16.35;;;;;;;22.09;97.31;100916.19;5984774;23;20028;-74
2022/08/19 08:12:47;;;;;;;23.10;14.45;;;;;;;21.59;94.72;100823.09;5994194;23;20036;-74
2022/08/19 08:15:33;;;;;;;22.10;14.98;;;;;;;21.88;93.13;100791.72;5992213;23;20022;-75
2022/08/19 08:18:07;;;;;;;20.38;15.07;;;;;;;23.25;91.05;100927.00;6006215;23;20037;-74
2022/08/19 08:20:34;;;;;;;20.23;14.60;;;;;;;23.57;88.41;100922.81;6005943;23;20007;-73
2022/08/19 08:25:48;;;;;;;20.00;14.15;;;;;;;23.49;83.46;100870.03;5985313;23;20022;-73
2022/08/19 08:28:16;;;;;;;23.00;16.08;;;;;;;23.41;82.11;100857.44;5991364;23;20023;-73
2022/08/19 08:30:45;;;;;;;16.60;13.10;;;;;;;24.07;81.17;100936.34;5974901;23;21343;-73
2022/08/19 08:33:11;;;;;;;19.10;14.98;;;;;;;24.09;80.59;100925.41;5990863;23;20030;-73
2022/08/19 08:35:42;;;;;;;24.95;15.43;;;;;;;23.92;80.25;100921.03;5964761;23;20060;-74
2022/08/19 08:38:08;;;;;;;18.15;13.88;;;;;;;23.20;80.22;100840.97;5982606;23;20030;-72
2022/08/19 08:40:49;;;;;;;17.15;12.95;;;;;;;23.08;81.71;100876.00;5977468;23;20344;-73
2022/08/19 08:43:26;;;;;;;16.75;13.57;;;;;;;23.21;82.63;100950.59;5969478;23;20029;-75
2022/08/19 08:46:21;;;;;;;18.20;12.60;;;;;;;22.55;85.07;100895.66;5975837;23;20132;-75
2022/08/19 08:49:34;;;;;;;21.30;13.90;;;;;;;22.75;83.98;100922.22;5972610;23;20078;-74
2022/08/19 08:52:10;;;;;;;18.05;13.25;;;;;;;22.27;84.73;100866.31;5981495;23;20571;-78
2022/08/19 08:54:42;;;;;;;17.40;13.13;;;;;;;22.78;84.76;100938.81;5980248;23;20042;-76
2022/08/19 08:57:44;;;;;;;18.00;12.48;;;;;;;22.78;83.16;100936.16;5971476;23;20635;-75
2022/08/19 09:00:16;;;;;;;17.52;15.00;;;;;;;22.38;84.55;100886.63;5979013;23;20094;-74
2022/08/19 09:02:43;;;;;;;16.70;12.40;;;;;;;22.74;83.78;100942.81;5996912;23;20461;-73
2022/08/19 09:05:16;;;;;;;18.85;13.25;;;;;;;22.42;82.49;100895.19;5995861;23;20031;-73
2022/08/19 09:08:08;;;;;;;18.40;12.55;;;;;;;22.64;82.79;100910.78;5989357;23;20030;-74
2022/08/19 09:10:52;;;;;;;15.13;11.82;;;;;;;23.01;81.92;100957.06;6000215;23;20176;-72
2022/08/19 09:13:38;;;;;;;13.85;10.50;;;;;;;22.88;81.88;100896.75;5967856;23;20027;-73
2022/08/19 09:16:08;;;;;;;13.82;12.20;;;;;;;23.22;80.16;100921.97;6003785;23;20094;-72
2022/08/19 09:18:52;;;;;;;15.40;10.35;;;;;;;23.44;78.67;100942.84;5994921;23;20141;-72
2022/08/19 09:21:22;;;;;;;17.38;11.50;;;;;;;23.07;78.05;100874.34;5994383;23;20818;-73
2022/08/19 09:23:58;;;;;;;14.13;10.63;;;;;;;23.61;75.74;100938.41;5982025;23;20034;-74
2022/08/19 09:26:26;;;;;;;11.02;9.50;;;;;;;23.83;74.79;100933.53;5992351;23;20027;-74
2022/08/19 09:29:12;;;;;;;14.02;11.55;;;;;;;23.14;73.67;100853.13;5969359;23;21435;-74
2022/08/19 09:31:39;;;;;;;10.57;9.50;;;;;;;23.16;73.44;100828.88;5982545;23;20035;-73
2022/08/19 09:34:09;;;;;;;12.50;11.20;;;;;;;24.08;71.52;100931.81;5991620;23;20038;-74
2022/08/19 09:36:52;;;;;;;13.70;10.60;;;;;;;23.79;72.51;100874.06;5993377;23;20039;-72
2022/08/19 09:39:20;;;;;;;11.10;9.30;;;;;;;24.19;70.91;100851.03;5989764;23;20543;-75
2022/08/19 09:41:46;;;;;;;10.27;9.20;;;;;;;24.63;68.53;100869.53;5994022;23;20134;-75
2022/08/19 09:44:14;;;;;;;10.70;9.60;;;;;;;25.07;67.23;100914.81;5981137;23;20492;-73
2022/08/19 09:46:41;;;;;;;11.40;9.80;;;;;;;25.30;65.89;100903.41;5985915;23;20038;-74
2022/08/19 09:49:07;;;;;;;13.73;11.95;;;;;;;24.86;64.79;100804.44;5960191;23;20714;-73
2022/08/19 09:51:34;;;;;;;12.30;10.07;;;;;;;25.67;64.44;100912.69;6005286;23;20015;-73
2022/08/19 09:54:02;;;;;;;9.93;9.02;;;;;;;25.93;64.22;100916.97;5996407;23;20027;-73
2022/08/19 09:56:31;;;;;;;12.55;9.77;;;;;;;25.75;63.52;100853.50;5994668;23;20484;-73
2022/08/19 09:59:00;;;;;;;9.80;8.80;;;;;;;26.22;61.64;100909.09;6000498;23;20429;-73
2022/08/19 10:01:30;;;;;;;10.40;9.15;;;;;;;25.94;62.07;100849.59;5986460;23;20058;-73
2022/08/19 10:04:01;;;;;;;9.65;8.45;;;;;;;26.46;60.94;100907.22;5970790;23;20068;-72
2022/08/19 10:06:41;;;;;;;10.07;9.07;;;;;;;26.53;60.24;100910.91;5990604;23;20455;-74
2022/08/19 10:09:12;;;;;;;11.48;9.55;;;;;;;25.62;61.11;100847.88;5965280;23;20030;-74
2022/08/19 10:11:44;;;;;;;9.07;8.27;;;;;;;25.64;61.60;100864.66;5972409;23;20016;-73
2022/08/19 10:14:23;;;;;;;9.93;8.00;;;;;;;25.74;62.39;100876.03;5964085;23;20098;-74
2022/08/19 10:16:51;;;;;;;12.02;8.93;;;;;;;25.78;61.71;100920.38;5966244;23;20020;-73
2022/08/19 10:19:24;;;;;;;9.18;8.38;;;;;;;25.72;62.28;100898.72;5970266;23;20102;-73
2022/08/19 10:21:53;;;;;;;10.38;9.35;;;;;;;25.79;62.37;100916.66;5977288;23;20381;-73
2022/08/19 10:24:27;;;;;;;9.70;8.82;;;;;;;25.14;63.63;100863.09;5968969;23;20477;-74
2022/08/19 10:26:53;;;;;;;10.18;9.15;;;;;;;25.30;63.09;100870.31;5960054;23;20419;-73
2022/08/19 10:29:27;;;;;;;10.32;9.32;;;;;;;24.93;63.21;100805.41;5964588;23;20019;-75
2022/08/19 10:32:05;;;;;;;10.50;9.38;;;;;;;25.58;62.25;100871.56;5979875;23;20530;-76
2022/08/19 10:34:37;;;;;;;9.35;8.48;;;;;;;25.76;61.36;100849.81;5965597;23;20623;-74
2022/08/19 10:37:16;;;;;;;11.45;9.20;;;;;;;26.10;62.26;100917.72;5967236;23;20537;-74
2022/08/19 10:39:49;;;;;;;13.38;9.77;;;;;;;25.98;62.24;100922.66;5971663;23;20019;-74
2022/08/19 10:42:22;;;;;;;11.30;10.32;;;;;;;25.74;61.96;100859.91;5965821;23;20524;-73
2022/08/19 10:44:49;;;;;;;11.10;9.98;;;;;;;25.93;61.35;100873.97;5970753;23;20363;-73
2022/08/19 10:47:20;;;;;;;11.13;9.95;;;;;;;26.17;60.45;100881.03;5965871;23;20527;-73
2022/08/19 10:52:48;;;;;;;9.40;8.50;;;;;;;26.13;59.27;100810.63;5971711;23;20602;-74
2022/08/19 10:58:15;;;;;;;11.70;10.32;;;;;;;26.67;58.97;100914.69;5958303;23;20411;-74
2022/08/19 11:00:50;;;;;;;11.25;8.57;;;;;;;26.64;59.03;100899.75;5949319;24;20076;-73
2022/08/19 11:03:18;;;;;;;13.35;9.00;;;;;;;26.67;59.56;100877.00;5968847;23;20031;-73
2022/08/19 11:05:44;;;;;;;10.40;9.30;;;;;;;26.05;57.53;100775.72;5929878;23;20121;-72
2022/08/19 11:08:11;;;;;;;10.90;9.90;;;;;;;26.37;57.65;100846.44;6000144;23;20022;-73
2022/08/19 11:10:50;;;;;;;8.65;7.82;;;;;;;26.97;56.34;100904.00;5952722;23;20536;-73
2022/08/19 11:13:17;;;;;;;10.20;9.27;;;;;;;26.85;55.10;100900.91;6006933;23;20012;-73
2022/08/19 11:15:45;;;;;;;8.60;7.78;;;;;;;25.76;55.16;100693.91;5990674;23;20091;-73
2022/08/19 11:18:12;;;;;;;10.02;9.23;;;;;;;27.30;55.05;100915.31;5995062;23;20050;-73
2022/08/19 11:20:38;;;;;;;9.95;8.00;;;;;;;26.78;55.26;100859.56;5999448;23;20019;-73
2022/08/19 11:23:06;;;;;;;10.23;9.40;;;;;;;26.69;55.81;100927.97;5994090;23;20239;-73
2022/08/19 11:25:33;;;;;;;9.15;8.18;;;;;;;26.70;56.16;100903.56;6001772;23;20019;-72
2022/08/19 11:27:59;;;;;;;9.00;8.30;;;;;;;26.35;54.77;100781.19;6008096;23;20520;-72
2022/08/19 11:30:29;;;;;;;8.30;7.70;;;;;;;27.37;54.08;100918.13;5994367;23;20004;-73
2022/08/19 11:32:55;;;;;;;9.40;8.50;;;;;;;27.51;53.27;100911.88;5954380;23;20043;-73
2022/08/19 11:35:23;;;;;;;9.07;8.27;;;;;;;27.40;52.95;100910.50;5999047;23;20536;-73
2022/08/19 11:37:49;;;;;;;8.57;7.88;;;;;;;27.44;53.37;100914.50;5967718;23;20334;-74
2022/08/19 11:40:16;;;;;;;9.80;8.85;;;;;;;27.26;52.62;100827.78;5996415;23;20023;-74
2022/08/19 11:42:55;;;;;;;8.98;8.07;;;;;;;27.36;53.32;100841.81;5999348;23;20019;-74
2022/08/19 11:45:27;;;;;;;10.02;8.38;;;;;;;27.88;53.02;100906.56;5993956;23;20083;-75